FW3965 Weather Reports


Display with metric or nautical units.
time (UTC)temp
F
wind
direction
speed
MPH
gust
MPH
rain 1hr
in
rain 24hr
in
rain mn
in
humidity
%
barometer
mb
20190616230526 61 331 2.0 5.0 0.00 0.00 0.00 69 1020.8
20190616225516 61 331 2.0 6.0 0.00 0.00 0.00 69 1020.9
20190616224517 61 331 3.0 6.0 0.00 0.00 0.00 69 1020.9
20190616223520 61 328 3.0 8.0 0.00 0.00 0.00 69 1020.9
20190616222520 61 332 3.0 8.0 0.00 0.00 0.00 1020.9
20190616221515 61 325 2.0 5.0 0.00 0.00 0.00 68 1020.9
20190616220530 61 335 2.0 9.0 0.00 0.00 0.00 68 1020.9
20190616215516 61 332 2.0 5.0 0.00 0.00 0.00 67 1020.9
20190616214516 61 329 3.0 5.0 0.00 0.00 0.00 67 1021.0
20190616213517 62 316 3.0 8.0 0.00 0.00 0.00 67 1020.9
20190616212518 62 330 4.0 9.0 0.00 0.00 0.00 67 1020.9
20190616211515 62 318 4.0 9.0 0.00 0.00 0.00 67 1020.8
20190616210516 62 321 3.0 6.0 0.00 0.00 0.00 67 1020.8
20190616205516 62 321 3.0 5.0 0.00 0.00 0.00 66 1020.6
20190616204535 62 331 5.0 9.0 0.00 0.00 0.00 66 1020.6
20190616203519 62 333 4.0 8.0 0.00 0.00 0.00 66 1020.5
20190616202525 62 323 6.0 12.0 0.00 0.00 0.00 66 1020.4
20190616201515 63 327 7.0 13.0 0.00 0.00 0.00 66 1020.3
20190616200525 63 325 8.0 14.0 0.00 0.00 0.00 66 1020.2
20190616195526 63 324 10.0 16.0 0.00 0.00 0.00 65 1020.1
20190616194526 63 323 12.0 20.0 0.00 0.00 0.00 65 1020.0
20190616193516 64 313 10.0 14.0 0.00 0.00 0.00 64 1020.0
20190616192542 64 327 11.0 17.0 0.00 0.00 0.00 64 1019.9
20190616191517 64 330 10.0 16.0 0.00 0.00 0.00 63 1019.8
20190616190515 65 320 9.0 18.0 0.00 0.00 0.00 62 1019.7
20190616185515 66 315 10.0 16.0 0.00 0.00 0.00 61 1019.6
20190616184516 66 312 13.0 20.0 0.00 0.00 0.00 61 1019.4
20190616183516 67 310 12.0 17.0 0.00 0.00 0.00 60 1019.3
20190616182516 68 318 12.0 19.0 0.00 0.00 0.00 60 1019.3
20190616181517 68 322 12.0 19.0 0.00 0.00 0.00 59 1019.1
20190616180517 69 316 12.0 20.0 0.00 0.00 0.00 57 1019.0
20190616175518 70 318 10.0 16.0 0.00 0.00 0.00 56 1018.9
20190616174519 71 320 10.0 17.0 0.00 0.00 0.00 55 1018.8
20190616173520 72 324 10.0 16.0 0.00 0.00 0.00 53 1018.7
20190616172521 73 325 9.0 14.0 0.00 0.00 0.00 53 1018.6
20190616171516 74 330 6.0 11.0 0.00 0.00 0.00 52 1018.6
20190616170517 74 319 9.0 14.0 0.00 0.00 0.00 51 1018.6
20190616165523 75 326 6.0 12.0 0.00 0.00 0.00 50 1018.5
20190616164524 75 331 5.0 11.0 0.00 0.00 0.00 48 1018.5
20190616163525 76 6 5.0 11.0 0.00 0.00 0.00 47 1018.5
20190616162521 76 11 2.0 6.0 0.00 0.00 0.00 47 1018.5
20190616161526 76 354 5.0 9.0 0.00 0.00 0.00 48 1018.5
20190616160522 77 351 5.0 14.0 0.00 0.00 0.00 47 1018.3
20190616155517 77 312 2.0 7.0 0.00 0.00 0.00 46 1018.4
20190616154528 77 358 3.0 10.0 0.00 0.00 0.00 47 1018.4
20190616153523 77 32 4.0 9.0 0.00 0.00 0.00 47 1018.4
20190616152530 77 31 4.0 9.0 0.00 0.00 0.00 46 1018.4
20190616151531 77 53 3.0 5.0 0.00 0.00 0.00 46 1018.3
20190616150516 77 34 5.0 9.0 0.00 0.00 0.00 47 1018.4
20190616145516 78 56 6.0 9.0 0.00 0.00 0.00 45 1018.5
20190616144517 78 14 2.0 4.0 0.00 0.00 0.00 45 1018.5
20190616143520 78 1 4.0 9.0 0.00 0.00 0.00 46 1018.6
20190616142515 78 352 2.0 8.0 0.00 0.00 0.00 46 1018.6
20190616141535 78 10 4.0 7.0 0.00 0.00 0.00 45 1018.6
20190616140516 79 82 2.0 6.0 0.00 0.00 0.00 44 1018.7
20190616135526 78 96 2.0 6.0 0.00 0.00 0.00 45 1018.8
20190616134527 78 70 3.0 7.0 0.00 0.00 0.00 44 1018.9
20190616133538 77 55 2.0 8.0 0.00 0.00 0.00 46 1019.0
20190616132538 77 44 4.0 9.0 0.00 0.00 0.00 45 1019.0
20190616131539 77 351 2.0 4.0 0.00 0.00 0.00 44 1019.2
20190616130515 77 346 4.0 9.0 0.00 0.00 0.00 44 1019.3
20190616125540 77 303 3.0 10.0 0.00 0.00 0.00 43 1019.4
20190616124516 77 319 6.0 12.0 0.00 0.00 0.00 41 1019.5
20190616123517 77 325 4.0 9.0 0.00 0.00 0.00 40 1019.7
20190616122517 76 297 4.0 8.0 0.00 0.00 0.00 40 1019.7
20190616121515 75 303 1.0 4.0 0.00 0.00 0.00 41 1019.8
20190616120515 74 296 5.0 10.0 0.00 0.00 0.00 42 1020.0
20190616115544 74 116 2.0 7.0 0.00 0.00 0.00 41 1020.2
20190616114515 74 112 2.0 7.0 0.00 0.00 0.00 40 1020.4
20190616113515 75 131 5.0 12.0 0.00 0.00 0.00 40 1020.5
20190616112517 74 188 2.0 7.0 0.00 0.00 0.00 40 1020.6
20190616111517 74 181 1.0 3.0 0.00 0.00 0.00 40 1020.8
20190616110515 73 188 3.0 7.0 0.00 0.00 0.00 40 1021.0
20190616105515 73 163 2.0 5.0 0.00 0.00 0.00 41 1021.2
20190616104515 72 126 2.0 6.0 0.00 0.00 0.00 41 1021.3
20190616103516 71 158 1.0 5.0 0.00 0.00 0.00 43 1021.5
20190616102516 71 139 4.0 8.0 0.00 0.00 0.00 43 1021.5
20190616101520 70 134 3.0 7.0 0.00 0.00 0.00 44 1021.7
20190616100517 69 149 2.0 5.0 0.00 0.00 0.00 46 1021.8
20190616095515 69 146 4.0 9.0 0.00 0.00 0.00 46 1022.0
20190616094515 68 146 3.0 9.0 0.00 0.00 0.00 48 1022.2
20190616093516 68 149 2.0 5.0 0.00 0.00 0.00 49 1022.3
20190616092516 66 168 3.0 8.0 0.00 0.00 0.00 50 1022.4
20190616091517 66 151 4.0 7.0 0.00 0.00 0.00 51 1022.4
20190616090517 65 161 3.0 7.0 0.00 0.00 0.00 52 1022.6
20190616085519 64 150 3.0 8.0 0.00 0.00 0.00 53 1022.7
20190616084515 63 138 3.0 7.0 0.00 0.00 0.00 53 1022.9
20190616083515 63 143 3.0 5.0 0.00 0.00 0.00 54 1022.9
20190616082516 62 156 1.0 4.0 0.00 0.00 0.00 55 1023.0
20190616081516 61 131 2.0 5.0 0.00 0.00 0.00 56 1023.1
20190616080516 60 118 2.0 4.0 0.00 0.00 0.00 57 1023.2
20190616075517 60 135 2.0 4.0 0.00 0.00 0.00 57 1023.3
20190616074517 60 146 1.0 4.0 0.00 0.00 0.00 58 1023.3
20190616073515 60 139 1.0 3.0 0.00 0.00 0.00 57 1023.4
20190616072515 59 139 0.0 1.0 0.00 0.00 0.00 58 1023.4
20190616071515 58 139 0.0 1.0 0.00 0.00 0.00 61 1023.5
20190616070529 56 139 0.0 2.0 0.00 0.00 0.00 64 1023.5
20190616065517 56 139 1.0 2.0 0.00 0.00 0.00 65 1023.5
20190616064517 55 139 0.0 1.0 0.00 0.00 0.00 67 1023.5
20190616063517 53 139 0.0 1.0 0.00 0.00 0.00 70 1023.5
20190616062515 53 139 0.0 2.0 0.00 0.00 0.00 71 1023.5
20190616061515 51 139 0.0 2.0 0.00 0.00 0.00 73 1023.5
20190616060516 50 139 0.0 2.0 0.00 0.00 0.00 75 1023.5
20190616055532 50 139 1.0 3.0 0.00 0.00 0.00 76 1023.5
20190616054535 49 139 1.0 3.0 0.00 0.00 0.00 77 1023.5
20190616053517 49 139 0.0 2.0 0.00 0.00 0.00 77 1023.5
20190616052517 48 125 1.0 4.0 0.00 0.00 0.00 77 1023.4
20190616051515 48 124 1.0 3.0 0.00 0.00 0.00 76 1023.5
20190616050537 48 128 2.0 3.0 0.00 0.00 0.00 76 1023.5
20190616045516 49 128 1.0 3.0 0.00 0.00 0.00 77 1023.5
20190616044516 49 128 1.0 2.0 0.00 0.00 0.00 77 1023.5
20190616043516 49 128 0.0 2.0 0.00 0.00 0.00 76 1023.5
20190616042517 49 128 1.0 3.0 0.00 0.00 0.00 76 1023.5
20190616041517 49 128 1.0 3.0 0.00 0.00 0.00 76 1023.5
20190616040515 49 127 1.0 4.0 0.00 0.00 0.00 76 1023.5
20190616035541 49 127 2.0 3.0 0.00 0.00 0.00 76 1023.5
20190616034516 49 127 1.0 3.0 0.00 0.00 0.00 76 1023.5
20190616033537 49 125 2.0 4.0 0.00 0.00 0.00 76 1023.5
20190616032516 50 136 2.0 4.0 0.00 0.00 0.00 76 1023.5
20190616031543 50 150 2.0 4.0 0.00 0.00 0.00 75 1023.6
20190616030538 50 152 2.0 4.0 0.00 0.00 0.00 75 1023.7
20190616025515 50 119 2.0 4.0 0.00 0.00 0.00 75 1023.8
20190616024516 50 110 1.0 3.0 0.00 0.00 0.00 75 1023.8
20190616023516 50 110 2.0 4.0 0.00 0.00 0.00 75 1023.9
20190616022516 51 121 3.0 4.0 0.00 0.00 0.00 74 1024.0
20190616021517 51 120 2.0 4.0 0.00 0.00 0.00 74 1024.1
20190616020517 51 118 1.0 3.0 0.00 0.00 0.00 74 1024.1
20190616015517 51 118 1.0 3.0 0.00 0.00 0.00 74 1024.1
20190616014519 51 118 1.0 3.0 0.00 0.00 0.00 74 1024.1
20190616013519 51 113 3.0 6.0 0.00 0.00 0.00 73 1024.1
20190616012520 52 126 2.0 3.0 0.00 0.00 0.00 73 1024.1
20190616011516 52 126 0.0 2.0 0.00 0.00 0.00 72 1024.3
20190616010517 52 126 0.0 2.0 0.00 0.00 0.00 72 1024.4
20190616005517 52 126 0.0 1.0 0.00 0.00 0.00 72 1024.5
20190616004517 52 126 0.0 2.0 0.00 0.00 0.00 71 1024.6
20190616003515 53 126 2.0 3.0 0.00 0.00 0.00 71 1024.6
20190616002523 53 126 1.0 3.0 0.00 0.00 0.00 71 1024.7
20190616001519 53 126 1.0 3.0 0.00 0.00 0.00 71 1024.8
20190616000519 53 128 1.0 3.0 0.00 0.00 0.00 71 1024.9
20190615235517 53 129 2.0 4.0 0.00 0.00 0.00 71 1024.9
20190615234517 53 138 2.0 4.0 0.00 0.00 0.00 70 1024.9
20190615233517 54 144 2.0 4.0 0.00 0.00 0.00 69 1024.9
20190615232515 54 143 1.0 2.0 0.00 0.00 0.00 69 1025.0
20190615231515 54 143 1.0 3.0 0.00 0.00 0.00 69 1025.1